createdAt,value
2018-12-08T00:00:21.615Z,13.20
2018-12-08T00:02:48.959Z,12.33
2018-12-08T00:05:16.315Z,14.60
2018-12-08T00:07:43.387Z,10.90
2018-12-08T00:10:10.558Z,12.90
2018-12-08T00:12:37.648Z,11.73
2018-12-08T00:15:05.006Z,13.03
2018-12-08T00:17:32.307Z,12.83
2018-12-08T00:19:59.370Z,12.27
2018-12-08T00:22:26.558Z,17.70
2018-12-08T00:24:53.642Z,10.33
2018-12-08T00:27:20.710Z,17.27
2018-12-08T00:29:47.882Z,14.80
2018-12-08T00:32:15.054Z,11.77
2018-12-08T00:34:42.240Z,10.17
2018-12-08T00:37:09.316Z,8.73
2018-12-08T00:39:36.398Z,16.70
2018-12-08T00:42:03.582Z,15.20
2018-12-08T00:44:30.670Z,15.77
2018-12-08T00:46:57.745Z,12.87
2018-12-08T00:49:24.867Z,16.00
2018-12-08T00:51:51.943Z,14.97
2018-12-08T00:54:19.032Z,14.17
2018-12-08T00:56:46.255Z,10.60
2018-12-08T00:59:13.329Z,13.20
2018-12-08T01:01:41.011Z,13.27
2018-12-08T01:04:08.347Z,16.03
2018-12-08T01:06:35.656Z,14.33
2018-12-08T01:09:05.396Z,15.63
2018-12-08T01:11:32.476Z,12.37
2018-12-08T01:13:59.647Z,12.23
2018-12-08T01:16:26.922Z,13.90
2018-12-08T01:18:54.395Z,12.60
2018-12-08T01:21:21.579Z,13.70
2018-12-08T01:23:48.880Z,14.73
2018-12-08T01:26:15.955Z,19.63
2018-12-08T01:28:43.135Z,9.33
2018-12-08T01:31:10.315Z,12.90
2018-12-08T01:33:37.496Z,15.70
2018-12-08T01:36:04.786Z,15.57
2018-12-08T01:38:31.847Z,13.23
2018-12-08T01:40:58.962Z,15.33
2018-12-08T01:43:26.137Z,12.53
2018-12-08T01:45:53.441Z,12.67
2018-12-08T01:48:20.618Z,11.67
2018-12-08T01:50:47.694Z,9.60
2018-12-08T01:53:14.768Z,18.63
2018-12-08T01:55:41.830Z,11.97
2018-12-08T01:58:09.003Z,13.87
2018-12-08T02:00:36.283Z,11.80
2018-12-08T02:03:03.570Z,16.50
2018-12-08T02:05:30.634Z,13.67
2018-12-08T02:07:57.714Z,12.03
2018-12-08T02:10:24.946Z,14.07
2018-12-08T02:12:52.074Z,12.47
2018-12-08T02:15:19.247Z,15.97
2018-12-08T02:17:46.299Z,14.70
2018-12-08T02:20:13.483Z,10.70
2018-12-08T02:22:40.659Z,15.97
2018-12-08T02:25:08.051Z,15.63
2018-12-08T02:27:35.250Z,15.97
2018-12-08T02:30:03.361Z,12.53
2018-12-08T02:32:30.535Z,17.90
2018-12-08T02:34:57.661Z,13.30
2018-12-08T02:37:25.023Z,14.30
2018-12-08T02:39:52.239Z,19.93
2018-12-08T02:42:19.573Z,17.33
2018-12-08T02:44:46.896Z,16.37
2018-12-08T02:47:14.187Z,14.43
2018-12-08T02:49:41.571Z,16.30
2018-12-08T02:52:08.855Z,17.93
2018-12-08T02:54:35.926Z,17.27
2018-12-08T02:57:03.091Z,17.43
2018-12-08T02:59:30.163Z,18.27
2018-12-08T03:01:57.230Z,12.00
2018-12-08T03:04:24.311Z,18.87
2018-12-08T03:06:51.502Z,15.33
2018-12-08T03:09:18.567Z,15.57
2018-12-08T03:11:45.806Z,14.20
2018-12-08T03:14:12.863Z,13.60
2018-12-08T03:16:40.155Z,17.60
2018-12-08T03:19:07.274Z,12.47
2018-12-08T03:21:34.339Z,13.63
2018-12-08T03:24:01.423Z,14.93
2018-12-08T03:26:28.491Z,14.10
2018-12-08T03:28:55.702Z,13.43
2018-12-08T03:31:22.919Z,15.37
2018-12-08T03:33:49.984Z,11.47
2018-12-08T03:36:17.154Z,10.57
2018-12-08T03:38:44.206Z,13.47
2018-12-08T03:41:11.398Z,17.23
2018-12-08T03:43:38.458Z,11.47
2018-12-08T03:46:05.532Z,13.60
2018-12-08T03:48:32.812Z,10.13
2018-12-08T03:50:59.982Z,12.30
2018-12-08T03:53:27.147Z,18.30
2018-12-08T03:55:54.206Z,15.23
2018-12-08T03:58:21.268Z,15.87
2018-12-08T04:00:48.438Z,17.00
2018-12-08T04:03:16.038Z,14.60
2018-12-08T04:05:43.203Z,12.97
2018-12-08T04:08:10.257Z,12.77
2018-12-08T04:10:37.320Z,15.23
2018-12-08T04:13:04.488Z,14.27
2018-12-08T04:15:31.784Z,15.23
2018-12-08T04:17:58.963Z,10.70
2018-12-08T04:20:26.144Z,15.33
2018-12-08T04:22:53.419Z,16.93
2018-12-08T04:25:20.608Z,12.70
2018-12-08T04:27:47.787Z,19.43
2018-12-08T04:30:15.789Z,9.47
2018-12-08T04:32:42.860Z,13.43
2018-12-08T04:35:09.923Z,14.63
2018-12-08T04:37:37.121Z,17.63
2018-12-08T04:40:04.588Z,18.83
2018-12-08T04:42:31.874Z,16.80
2018-12-08T04:44:59.082Z,17.20
2018-12-08T04:47:26.131Z,15.20
2018-12-08T04:49:53.211Z,14.95
2018-12-08T04:52:20.271Z,18.57
2018-12-08T04:54:47.463Z,18.00
2018-12-08T04:57:14.525Z,17.27
2018-12-08T04:59:41.594Z,15.67
2018-12-08T05:02:08.770Z,16.70
2018-12-08T05:04:35.879Z,16.30
2018-12-08T05:07:03.170Z,15.23
2018-12-08T05:09:30.337Z,14.33
2018-12-08T05:11:57.422Z,16.20
2018-12-08T05:14:24.494Z,13.63
2018-12-08T05:16:51.667Z,16.07
2018-12-08T05:19:18.838Z,13.37
2018-12-08T05:21:45.899Z,11.60
2018-12-08T05:24:12.962Z,13.30
2018-12-08T05:26:40.143Z,12.35
2018-12-08T05:29:07.226Z,12.50
2018-12-08T05:31:34.298Z,19.50
2018-12-08T05:34:01.470Z,14.87
2018-12-08T05:36:28.851Z,15.00
2018-12-08T05:38:56.053Z,12.30
2018-12-08T05:41:23.222Z,10.33
2018-12-08T05:43:50.394Z,18.10
2018-12-08T05:46:17.570Z,14.50
2018-12-08T05:48:44.642Z,12.87
2018-12-08T05:51:11.906Z,14.03
2018-12-08T05:53:38.982Z,14.13
2018-12-08T05:56:06.050Z,12.40
2018-12-08T05:58:33.099Z,9.13
2018-12-08T06:01:00.279Z,11.83
2018-12-08T06:03:27.350Z,9.33
2018-12-08T06:05:54.420Z,12.70
2018-12-08T06:08:21.606Z,11.10
2018-12-08T06:10:48.683Z,10.23
2018-12-08T06:13:15.763Z,10.33
2018-12-08T06:15:42.818Z,9.27
2018-12-08T06:18:09.879Z,13.33
2018-12-08T06:20:36.944Z,11.03
2018-12-08T06:23:04.127Z,14.67
2018-12-08T06:25:33.926Z,11.37
2018-12-08T06:28:35.120Z,10.57
2018-12-08T06:31:02.395Z,11.73
2018-12-08T06:33:29.498Z,12.27
2018-12-08T06:35:56.658Z,11.70
2018-12-08T06:38:25.369Z,16.53
2018-12-08T06:40:52.715Z,12.67
2018-12-08T06:43:19.775Z,10.63
2018-12-08T06:45:46.850Z,15.63
2018-12-08T06:48:13.910Z,17.77
2018-12-08T06:50:40.974Z,15.87
2018-12-08T06:53:08.043Z,16.77
2018-12-08T06:55:35.205Z,15.73
2018-12-08T06:58:02.275Z,14.50
2018-12-08T07:00:29.442Z,12.45
2018-12-08T07:02:56.526Z,11.90
2018-12-08T07:05:23.710Z,15.43
2018-12-08T07:07:50.772Z,18.40
2018-12-08T07:10:17.831Z,12.40
2018-12-08T07:12:45.007Z,19.23
2018-12-08T07:15:12.203Z,18.00
2018-12-08T07:17:39.313Z,15.70
2018-12-08T07:20:06.682Z,13.60
2018-12-08T07:22:33.751Z,20.37
2018-12-08T07:25:00.803Z,15.80
2018-12-08T07:27:27.867Z,15.47
2018-12-08T07:29:54.943Z,17.13
2018-12-08T07:32:21.998Z,13.00
2018-12-08T07:34:49.073Z,19.63
2018-12-08T07:37:16.262Z,12.60
2018-12-08T07:39:43.575Z,13.77
2018-12-08T07:42:10.862Z,13.57
2018-12-08T07:44:38.158Z,16.20
2018-12-08T07:47:05.811Z,15.93
2018-12-08T07:49:32.986Z,14.53
2018-12-08T07:52:00.230Z,16.93
2018-12-08T07:54:27.422Z,12.83
2018-12-08T07:56:54.602Z,20.13
2018-12-08T07:59:21.812Z,13.93
2018-12-08T08:01:48.993Z,15.03
2018-12-08T08:04:16.083Z,15.40
2018-12-08T08:06:43.154Z,17.07
2018-12-08T08:09:10.278Z,13.57
2018-12-08T08:11:37.480Z,20.17
2018-12-08T08:14:04.791Z,17.77
2018-12-08T08:16:32.084Z,19.43
2018-12-08T08:18:59.291Z,19.90
2018-12-08T08:21:26.590Z,15.80
2018-12-08T08:23:53.877Z,17.07
2018-12-08T08:26:21.042Z,15.47
2018-12-08T08:28:48.130Z,17.00
2018-12-08T08:31:15.208Z,18.80
2018-12-08T08:33:42.392Z,18.23
2018-12-08T08:36:09.464Z,12.63
2018-12-08T08:38:36.537Z,13.53
2018-12-08T08:41:03.623Z,19.80
2018-12-08T08:43:30.688Z,16.50
2018-12-08T08:45:57.883Z,15.50
2018-12-08T08:48:24.955Z,16.27
2018-12-08T08:50:52.024Z,16.90
2018-12-08T08:53:19.094Z,15.20
2018-12-08T08:55:46.221Z,16.53
2018-12-08T08:58:13.309Z,17.80
2018-12-08T09:00:40.380Z,20.53
2018-12-08T09:03:07.586Z,19.93
2018-12-08T09:05:34.691Z,17.77
2018-12-08T09:08:01.867Z,16.77
2018-12-08T09:10:28.941Z,18.17
2018-12-08T09:12:56.026Z,18.43
2018-12-08T09:15:23.235Z,19.57
2018-12-08T09:17:50.311Z,14.83
2018-12-08T09:20:17.493Z,22.17
2018-12-08T09:22:44.566Z,17.93
2018-12-08T09:25:11.754Z,17.57
2018-12-08T09:27:38.935Z,15.67
2018-12-08T09:30:10.441Z,17.50
2018-12-08T09:32:37.578Z,17.90
2018-12-08T09:35:04.861Z,14.70
2018-12-08T09:37:32.039Z,16.80
2018-12-08T09:39:59.311Z,16.60
2018-12-08T09:42:26.498Z,16.03
2018-12-08T09:44:53.567Z,20.25
2018-12-08T09:47:20.739Z,14.07
2018-12-08T09:49:47.925Z,16.43
2018-12-08T09:52:15.353Z,23.23
2018-12-08T09:54:42.526Z,19.20
2018-12-08T09:57:09.719Z,15.20
2018-12-08T09:59:36.783Z,16.90
2018-12-08T10:02:04.090Z,21.03
2018-12-08T10:04:31.147Z,14.40
2018-12-08T10:06:58.342Z,15.10
2018-12-08T10:09:25.558Z,21.15
2018-12-08T10:11:52.736Z,17.60
2018-12-08T10:14:19.810Z,17.53
2018-12-08T10:16:46.890Z,16.30
2018-12-08T10:19:13.947Z,17.80
2018-12-08T10:21:41.005Z,22.10
2018-12-08T10:24:08.197Z,20.30
2018-12-08T10:26:35.338Z,18.10
2018-12-08T10:29:02.636Z,14.27
2018-12-08T10:31:29.827Z,17.77
2018-12-08T10:33:56.891Z,20.40
2018-12-08T10:36:24.083Z,21.30
2018-12-08T10:38:51.262Z,13.97
2018-12-08T10:41:18.446Z,14.90
2018-12-08T10:43:45.621Z,16.67
2018-12-08T10:46:12.702Z,23.83
2018-12-08T10:48:39.876Z,15.93
2018-12-08T10:51:07.053Z,14.00
2018-12-08T10:53:34.229Z,12.83
2018-12-08T10:56:01.310Z,15.90
2018-12-08T10:58:28.506Z,18.53
2018-12-08T11:01:01.362Z,20.03
2018-12-08T11:03:35.386Z,15.00
2018-12-08T11:06:02.567Z,14.90
2018-12-08T11:08:29.850Z,16.23
2018-12-08T11:10:57.031Z,13.20
2018-12-08T11:13:24.095Z,12.47
2018-12-08T11:15:51.274Z,15.97
2018-12-08T11:18:18.350Z,12.60
2018-12-08T11:20:45.434Z,15.30
2018-12-08T11:23:12.514Z,11.73
2018-12-08T11:25:40.259Z,12.77
2018-12-08T11:28:07.423Z,20.57
2018-12-08T11:30:34.598Z,16.27
2018-12-08T11:33:02.547Z,13.97
2018-12-08T11:35:29.611Z,13.93
2018-12-08T11:37:56.662Z,13.93
2018-12-08T11:40:23.950Z,13.50
2018-12-08T11:42:51.036Z,16.05
2018-12-08T11:45:18.211Z,16.07
2018-12-08T11:47:45.406Z,13.17
2018-12-08T11:50:12.683Z,15.37
2018-12-08T11:52:39.882Z,14.43
2018-12-08T11:55:07.187Z,15.73
2018-12-08T11:57:34.276Z,14.17
2018-12-08T12:00:01.568Z,15.63
2018-12-08T12:02:28.626Z,17.73
2018-12-08T12:04:55.719Z,11.80
2018-12-08T12:07:23.025Z,11.40
2018-12-08T12:09:50.194Z,13.77
2018-12-08T12:12:17.322Z,12.73
2018-12-08T12:14:46.608Z,13.53
2018-12-08T12:17:13.890Z,12.23
2018-12-08T12:19:41.170Z,14.37
2018-12-08T12:22:08.351Z,12.07
2018-12-08T12:24:35.554Z,13.97
2018-12-08T12:29:55.955Z,11.07
2018-12-08T12:32:23.023Z,10.50
2018-12-08T12:34:50.098Z,10.10
2018-12-08T12:47:03.951Z,11.87
2018-12-08T12:49:31.047Z,11.43
2018-12-08T12:51:58.347Z,11.27
2018-12-08T12:54:25.522Z,12.80
2018-12-08T12:56:52.706Z,12.03
2018-12-08T12:59:19.771Z,17.00
2018-12-08T13:01:46.838Z,14.17
2018-12-08T13:04:13.907Z,12.63
2018-12-08T13:06:41.138Z,8.53
2018-12-08T13:09:08.315Z,10.87
2018-12-08T13:11:35.428Z,14.00
2018-12-08T13:16:29.294Z,12.90
2018-12-08T13:18:56.439Z,13.63
2018-12-08T13:21:23.726Z,12.77
2018-12-08T13:23:50.898Z,12.57
2018-12-08T13:26:18.054Z,11.37
2018-12-08T13:28:45.127Z,14.50
2018-12-08T13:31:12.216Z,11.95
2018-12-08T13:33:39.747Z,12.20
2018-12-08T13:36:09.611Z,7.63
2018-12-08T13:38:36.715Z,15.97
2018-12-08T13:41:04.017Z,9.40
2018-12-08T13:43:31.085Z,11.50
2018-12-08T13:45:58.138Z,11.20
2018-12-08T13:48:26.477Z,15.70
2018-12-08T13:50:53.875Z,15.47
2018-12-08T13:53:21.043Z,15.67
2018-12-08T13:55:48.094Z,11.97
2018-12-08T13:58:15.291Z,12.27
2018-12-08T14:00:42.455Z,17.60
2018-12-08T14:03:09.626Z,16.57
2018-12-08T14:05:36.810Z,17.80
2018-12-08T14:08:03.898Z,15.50
2018-12-08T14:10:31.273Z,13.23
2018-12-08T14:12:58.442Z,14.20
2018-12-08T14:15:25.746Z,14.47
2018-12-08T14:17:52.914Z,14.20
2018-12-08T14:20:25.396Z,15.53
2018-12-08T14:22:52.454Z,16.60
2018-12-08T14:25:19.831Z,15.87
2018-12-08T14:27:47.022Z,15.33
2018-12-08T14:30:15.489Z,16.67
2018-12-08T14:32:42.759Z,16.30
2018-12-08T14:35:10.041Z,19.40
2018-12-08T14:37:37.348Z,21.50
2018-12-08T14:40:05.214Z,21.30
2018-12-08T14:42:32.383Z,24.17
2018-12-08T14:44:59.458Z,22.10
2018-12-08T14:47:26.522Z,24.37
2018-12-08T14:49:53.800Z,52.77
2018-12-08T14:52:20.967Z,41.47
2018-12-08T14:54:48.155Z,24.47
2018-12-08T14:57:15.321Z,65.00
2018-12-08T14:59:42.607Z,27.37
2018-12-08T15:02:09.845Z,32.93
2018-12-08T15:04:37.017Z,83.63
2018-12-08T15:07:04.286Z,36.03
2018-12-08T15:09:31.461Z,23.57
2018-12-08T15:11:58.663Z,26.70
2018-12-08T15:14:25.727Z,23.73
2018-12-08T15:16:52.890Z,22.43
2018-12-08T15:19:19.949Z,24.37
2018-12-08T15:21:47.131Z,25.70
2018-12-08T15:24:14.203Z,34.00
2018-12-08T15:26:41.389Z,25.63
2018-12-08T15:29:08.569Z,22.37
2018-12-08T15:31:35.623Z,36.27
2018-12-08T15:34:02.855Z,30.97
2018-12-08T15:36:30.873Z,34.30
2018-12-08T15:38:58.151Z,34.50
2018-12-08T15:41:25.430Z,46.97
2018-12-08T15:43:52.482Z,54.63
2018-12-08T15:46:19.649Z,57.03
2018-12-08T15:48:46.821Z,25.73
2018-12-08T15:51:14.043Z,36.70
2018-12-08T15:53:41.098Z,66.87
2018-12-08T15:56:08.268Z,49.10
2018-12-08T15:58:35.546Z,59.07
2018-12-08T16:01:02.818Z,90.47
2018-12-08T16:03:30.287Z,101.23
2018-12-08T16:05:57.458Z,35.53
2018-12-08T16:08:24.627Z,54.63
2018-12-08T16:10:52.015Z,34.53
2018-12-08T16:13:19.074Z,50.50
2018-12-08T16:15:46.148Z,33.03
2018-12-08T16:18:13.202Z,87.37
2018-12-08T16:20:40.375Z,82.30
2018-12-08T16:23:07.553Z,49.50
2018-12-08T16:25:34.850Z,45.97
2018-12-08T16:28:02.027Z,66.43
2018-12-08T16:30:29.066Z,39.40
2018-12-08T16:32:56.134Z,56.40
2018-12-08T16:35:23.415Z,63.97
2018-12-08T16:37:56.847Z,66.47
2018-12-08T16:40:19.576Z,36.60
2018-12-08T16:42:46.794Z,52.60
2018-12-08T16:45:13.978Z,139.70
2018-12-08T16:47:41.387Z,80.17
2018-12-08T16:50:09.404Z,94.60
2018-12-08T16:52:36.494Z,177.87
2018-12-08T16:55:04.320Z,134.60
2018-12-08T16:57:31.382Z,58.03
2018-12-08T16:59:58.559Z,120.23
2018-12-08T17:02:25.750Z,55.13
2018-12-08T17:04:52.959Z,105.00
2018-12-08T17:07:20.131Z,88.73
2018-12-08T17:09:47.199Z,120.57
2018-12-08T17:12:14.393Z,80.60
2018-12-08T17:14:41.575Z,91.53
2018-12-08T17:17:08.772Z,53.07
2018-12-08T17:19:35.826Z,68.60
2018-12-08T17:22:03.114Z,22.17
2018-12-08T17:24:30.202Z,24.83
2018-12-08T17:26:57.379Z,26.03
2018-12-08T17:29:24.634Z,24.90
2018-12-08T17:31:51.910Z,25.63
2018-12-08T17:34:18.974Z,19.17
2018-12-08T17:36:46.039Z,21.53
2018-12-08T17:39:13.217Z,10.67
2018-12-08T17:41:40.494Z,14.27
2018-12-08T17:44:07.586Z,8.97
2018-12-08T17:46:34.744Z,9.47
2018-12-08T17:49:01.795Z,15.60
2018-12-08T17:51:29.095Z,12.20
2018-12-08T17:53:56.266Z,11.67
2018-12-08T17:56:23.443Z,16.53
2018-12-08T17:58:50.658Z,14.33
2018-12-08T18:01:17.951Z,10.63
2018-12-08T18:03:45.233Z,17.77
2018-12-08T18:06:12.307Z,6.60
2018-12-08T18:08:39.608Z,18.40
2018-12-08T18:11:06.793Z,18.70
2018-12-08T18:13:33.858Z,10.70
2018-12-08T18:16:00.938Z,7.57
2018-12-08T18:18:28.010Z,6.53
2018-12-08T18:20:55.263Z,8.57
2018-12-08T18:23:22.734Z,8.97
2018-12-08T18:25:49.808Z,9.37
2018-12-08T18:28:16.915Z,6.27
2018-12-08T18:30:44.076Z,9.80
2018-12-08T18:33:11.150Z,8.57
2018-12-08T18:35:38.267Z,8.50
2018-12-08T18:38:05.527Z,5.93
2018-12-08T18:40:32.605Z,7.73
2018-12-08T18:42:59.694Z,6.43
2018-12-08T18:45:26.879Z,11.30
2018-12-08T18:47:53.988Z,8.93
2018-12-08T18:50:21.184Z,7.20
2018-12-08T18:52:48.255Z,6.10
2018-12-08T18:55:15.329Z,8.13
2018-12-08T18:57:42.406Z,7.10
2018-12-08T19:00:11.144Z,10.70
2018-12-08T19:02:38.319Z,10.17
2018-12-08T19:05:05.778Z,10.83
2018-12-08T19:07:32.858Z,8.27
2018-12-08T19:10:00.134Z,9.07
2018-12-08T19:12:27.331Z,9.67
2018-12-08T19:14:54.522Z,6.63
2018-12-08T19:17:21.774Z,7.53
2018-12-08T19:19:48.840Z,3.60
2018-12-08T19:22:16.002Z,6.27
2018-12-08T19:24:43.212Z,7.63
2018-12-08T19:27:10.369Z,6.30
2018-12-08T19:29:37.429Z,7.10
2018-12-08T19:32:04.699Z,11.03
2018-12-08T19:34:31.837Z,16.33
2018-12-08T19:36:59.102Z,4.23
2018-12-08T19:39:26.179Z,2.97
2018-12-08T19:41:53.354Z,3.03
2018-12-08T19:44:20.534Z,3.37
2018-12-08T19:46:47.702Z,4.77
2018-12-08T19:49:14.918Z,3.10
2018-12-08T19:51:42.107Z,3.43
2018-12-08T19:54:09.302Z,5.73
2018-12-08T19:56:36.382Z,3.13
2018-12-08T19:59:03.562Z,2.30
2018-12-08T20:01:30.922Z,3.23
2018-12-08T20:03:58.003Z,3.47
2018-12-08T20:06:25.101Z,3.30
2018-12-08T20:08:52.307Z,2.90
2018-12-08T20:11:19.502Z,1.57
2018-12-08T20:13:46.678Z,3.57
2018-12-08T20:16:13.870Z,3.53
2018-12-08T20:18:40.948Z,3.10
2018-12-08T20:21:08.355Z,4.00
2018-12-08T20:23:35.535Z,3.67
2018-12-08T20:26:02.819Z,5.83
2018-12-08T20:28:29.975Z,5.23
2018-12-08T20:30:57.150Z,5.27
2018-12-08T20:33:24.239Z,5.30
2018-12-08T20:35:51.428Z,5.87
2018-12-08T20:38:18.627Z,6.53
2018-12-08T20:40:45.702Z,8.77
2018-12-08T20:43:12.880Z,7.40
2018-12-08T20:45:39.963Z,9.40
2018-12-08T20:48:07.099Z,8.87
2018-12-08T20:50:34.178Z,9.83
2018-12-08T20:53:01.282Z,8.93
2018-12-08T20:55:28.383Z,7.73
2018-12-08T20:57:55.583Z,9.60
2018-12-08T21:00:22.769Z,8.95
2018-12-08T21:02:49.947Z,7.15
2018-12-08T21:05:17.002Z,9.27
2018-12-08T21:07:44.282Z,10.00
2018-12-08T21:10:11.463Z,10.10
2018-12-08T21:12:38.742Z,9.55
2018-12-08T21:15:06.135Z,11.23
2018-12-08T21:17:33.313Z,15.40
2018-12-08T21:20:00.498Z,7.40
2018-12-08T21:22:27.566Z,11.27
2018-12-08T21:24:54.618Z,11.20
2018-12-08T21:27:21.818Z,10.05
2018-12-08T21:29:48.887Z,16.10
2018-12-08T21:32:15.956Z,13.60
2018-12-08T21:34:43.010Z,14.80
2018-12-08T21:37:10.182Z,15.17
2018-12-08T21:39:37.246Z,14.23
2018-12-08T21:42:04.522Z,9.53
2018-12-08T21:44:31.706Z,12.33
2018-12-08T21:46:58.897Z,15.63
2018-12-08T21:49:25.970Z,14.37
2018-12-08T21:51:53.142Z,11.47
2018-12-08T21:54:20.300Z,13.77
2018-12-08T21:56:47.380Z,16.17
2018-12-08T21:59:14.550Z,16.43
2018-12-08T22:01:41.934Z,16.40
2018-12-08T22:04:09.102Z,19.60
2018-12-08T22:06:36.306Z,18.60
2018-12-08T22:09:04.422Z,14.13
2018-12-08T22:11:31.690Z,18.37
2018-12-08T22:13:58.747Z,18.80
2018-12-08T22:16:25.934Z,19.53
2018-12-08T22:18:52.998Z,17.00
2018-12-08T22:21:20.042Z,14.33
2018-12-08T22:23:47.103Z,18.50
2018-12-08T22:26:14.163Z,22.03
2018-12-08T22:28:41.442Z,20.60
2018-12-08T22:31:08.527Z,20.10
2018-12-08T22:33:35.582Z,20.50
2018-12-08T22:36:02.862Z,18.97
2018-12-08T22:38:29.924Z,24.10
2018-12-08T22:40:56.980Z,21.57
2018-12-08T22:43:24.142Z,21.17
2018-12-08T22:45:51.237Z,19.67
2018-12-08T22:48:18.314Z,16.40
2018-12-08T22:50:45.503Z,23.47
2018-12-08T22:53:12.675Z,21.17
2018-12-08T22:55:39.986Z,18.70
2018-12-08T22:58:07.215Z,17.37
2018-12-08T23:00:42.839Z,18.27
2018-12-08T23:03:10.227Z,19.90
2018-12-08T23:05:37.514Z,17.83
2018-12-08T23:08:04.809Z,20.10
2018-12-08T23:10:32.114Z,16.33
2018-12-08T23:12:59.500Z,26.10
2018-12-08T23:15:26.798Z,19.13
2018-12-08T23:17:53.979Z,14.83
2018-12-08T23:20:21.274Z,20.20
2018-12-08T23:22:48.342Z,20.57
2018-12-08T23:25:15.630Z,19.53
2018-12-08T23:27:42.927Z,20.13
2018-12-08T23:30:10.314Z,24.70
2018-12-08T23:32:37.594Z,19.23
2018-12-08T23:35:04.887Z,21.53
2018-12-08T23:37:32.174Z,20.03
2018-12-08T23:39:59.371Z,22.23
2018-12-08T23:42:26.546Z,22.20
2018-12-08T23:44:53.631Z,23.03
2018-12-08T23:47:20.814Z,20.17
2018-12-08T23:49:47.988Z,22.80
2018-12-08T23:52:15.062Z,20.17
2018-12-08T23:54:42.122Z,20.33
2018-12-08T23:57:09.186Z,22.00
2018-12-08T23:59:36.254Z,21.93
